Time;durP1;ratioP1;P1;durP2;ratioP2;P2;SDS_P1;SDS_P2;PMS_P1;PMS_P2;Temp;Humidity;BMP_temperature;BMP_pressure;BME280_temperature;BME280_humidity;BME280_pressure;Samples;Min_cycle;Max_cycle;Signal;HPM_P1;HPM_P2
2021/09/18 00:02:23;;;;;;;2.77;1.20;;;14.00;99.90;;;;;;5112633;28;20382;-82
2021/09/18 00:04:49;;;;;;;2.22;1.30;;;14.00;99.90;;;;;;5093778;28;21249;-83
2021/09/18 00:07:18;;;;;;;3.78;1.10;;;13.90;99.90;;;;;;5099337;28;20422;-88
2021/09/18 00:09:43;;;;;;;1.67;1.10;;;13.90;99.90;;;;;;5073872;28;20376;-87
2021/09/18 00:12:09;;;;;;;3.97;1.27;;;14.00;99.90;;;;;;5091576;28;20434;-82
2021/09/18 00:14:39;;;;;;;2.97;1.35;;;13.90;99.90;;;;;;5073695;28;20423;-84
2021/09/18 00:17:05;;;;;;;4.80;1.65;;;13.90;99.90;;;;;;5072935;28;20410;-85
2021/09/18 00:19:30;;;;;;;1.92;1.40;;;13.90;99.90;;;;;;5073259;28;20387;-86
2021/09/18 00:21:56;;;;;;;1.87;1.30;;;13.90;99.90;;;;;;5091463;28;20373;-82
2021/09/18 00:24:21;;;;;;;4.82;1.67;;;13.80;99.90;;;;;;5092029;28;20414;-83
2021/09/18 00:26:47;;;;;;;3.00;1.50;;;13.80;99.90;;;;;;5073349;28;20878;-82
2021/09/18 00:29:13;;;;;;;3.25;1.45;;;13.70;99.90;;;;;;5073187;28;20372;-85
2021/09/18 00:31:38;;;;;;;2.70;1.52;;;13.80;99.90;;;;;;5091303;28;20854;-87
2021/09/18 00:34:04;;;;;;;3.30;1.50;;;13.80;99.90;;;;;;5072920;28;20783;-83
2021/09/18 00:36:30;;;;;;;2.78;1.50;;;13.70;99.90;;;;;;5072869;28;20431;-84
2021/09/18 00:38:56;;;;;;;2.97;1.70;;;13.60;99.90;;;;;;5073228;28;20420;-85
2021/09/18 00:41:22;;;;;;;2.63;1.48;;;13.50;99.90;;;;;;5091406;28;20418;-86
2021/09/18 00:43:55;;;;;;;1.98;1.50;;;13.50;99.90;;;;;;5090952;28;20475;-85
2021/09/18 00:46:21;;;;;;;2.40;1.60;;;13.50;99.90;;;;;;5065809;28;20467;-87
2021/09/18 00:48:47;;;;;;;1.67;1.50;;;13.40;99.90;;;;;;5090593;28;20380;-86
2021/09/18 00:51:13;;;;;;;2.53;1.45;;;13.50;99.90;;;;;;5072832;28;20380;-84
2021/09/18 00:53:39;;;;;;;1.98;1.60;;;13.60;99.90;;;;;;5073145;28;20459;-85
2021/09/18 00:56:05;;;;;;;2.17;1.25;;;13.60;99.90;;;;;;5090814;28;20483;-82
2021/09/18 00:58:31;;;;;;;3.35;1.70;;;13.60;99.90;;;;;;5072777;28;20894;-82
2021/09/18 01:00:56;;;;;;;3.47;1.75;;;13.60;99.90;;;;;;5072708;28;20372;-86
2021/09/18 01:03:22;;;;;;;3.47;1.77;;;13.50;99.90;;;;;;5090979;28;20862;-85
2021/09/18 01:05:48;;;;;;;3.50;1.88;;;13.60;99.90;;;;;;5072664;28;20368;-85
2021/09/18 01:08:13;;;;;;;4.25;1.65;;;13.60;99.90;;;;;;5090833;28;20378;-85
2021/09/18 01:10:39;;;;;;;2.30;1.53;;;13.60;99.90;;;;;;5090788;28;20887;-86
2021/09/18 01:13:18;;;;;;;5.47;1.90;;;13.60;99.90;;;;;;5090654;28;20365;-85
2021/09/18 01:15:45;;;;;;;1.87;1.47;;;13.60;99.90;;;;;;5071983;28;20423;-85
2021/09/18 01:18:10;;;;;;;3.17;1.80;;;13.60;99.90;;;;;;5072297;28;20369;-86
2021/09/18 01:20:38;;;;;;;3.65;1.70;;;13.70;99.90;;;;;;5092222;28;20467;-82
2021/09/18 01:23:06;;;;;;;2.63;1.65;;;13.70;99.90;;;;;;5091031;28;20421;-85
2021/09/18 01:25:34;;;;;;;2.28;1.60;;;13.70;99.90;;;;;;5072471;28;20387;-86
2021/09/18 01:28:01;;;;;;;3.70;1.60;;;13.70;99.90;;;;;;5091019;28;20376;-83
2021/09/18 01:30:30;;;;;;;2.08;1.48;;;13.70;99.90;;;;;;5072017;28;20451;-85
2021/09/18 01:32:57;;;;;;;3.13;1.50;;;13.70;99.90;;;;;;5090206;28;20464;-85
2021/09/18 01:35:22;;;;;;;2.47;1.43;;;13.70;99.90;;;;;;5072353;28;20397;-83
2021/09/18 01:37:48;;;;;;;2.43;1.50;;;13.80;99.90;;;;;;5090372;28;20368;-86
2021/09/18 01:40:26;;;;;;;3.05;1.70;;;13.70;99.90;;;;;;5089845;28;20368;-85
2021/09/18 01:42:52;;;;;;;2.33;1.58;;;13.60;99.90;;;;;;5071771;28;20400;-87
2021/09/18 01:45:18;;;;;;;3.50;1.70;;;13.60;99.90;;;;;;5072880;28;20372;-83
2021/09/18 01:47:50;;;;;;;1.77;1.48;;;13.50;99.90;;;;;;5090150;28;20376;-86
2021/09/18 01:50:32;;;;;;;1.85;1.55;;;13.70;99.90;;;;;;5093157;28;20447;-80
2021/09/18 01:53:01;;;;;;;1.80;1.55;;;13.70;99.90;;;;;;5075974;28;20385;-85
2021/09/18 01:55:27;;;;;;;2.80;1.90;;;13.70;99.90;;;;;;5073511;28;20393;-85
2021/09/18 01:57:55;;;;;;;3.45;2.03;;;13.70;99.90;;;;;;5090144;28;20380;-84
2021/09/18 02:00:21;;;;;;;2.47;1.67;;;13.70;99.90;;;;;;5071322;28;20381;-85
2021/09/18 02:02:47;;;;;;;3.63;1.70;;;13.70;99.90;;;;;;5072833;28;20400;-83
2021/09/18 02:05:15;;;;;;;3.00;1.80;;;13.60;99.90;;;;;;5089832;28;20443;-87
2021/09/18 02:07:41;;;;;;;2.75;1.80;;;13.70;99.90;;;;;;5071941;28;20893;-85
2021/09/18 02:10:10;;;;;;;2.58;1.80;;;13.70;99.90;;;;;;5071664;28;20406;-84
2021/09/18 02:12:35;;;;;;;5.10;2.03;;;13.60;99.90;;;;;;5072424;28;20939;-84
2021/09/18 02:15:02;;;;;;;2.10;1.90;;;13.60;99.90;;;;;;5089878;28;20380;-83
2021/09/18 02:17:28;;;;;;;3.85;2.20;;;13.60;99.90;;;;;;5072088;28;20376;-84
2021/09/18 02:19:54;;;;;;;3.67;2.00;;;13.70;99.90;;;;;;5072259;28;20708;-86
2021/09/18 02:22:19;;;;;;;3.57;1.90;;;13.70;99.90;;;;;;5071865;28;20423;-83
2021/09/18 02:24:45;;;;;;;2.40;1.88;;;13.70;99.90;;;;;;5090372;28;20395;-83
2021/09/18 02:27:10;;;;;;;2.63;1.87;;;13.60;99.90;;;;;;5090250;28;21126;-84
2021/09/18 02:29:36;;;;;;;2.00;1.73;;;13.70;99.90;;;;;;5072373;28;20376;-84
2021/09/18 02:32:02;;;;;;;4.37;1.97;;;13.70;99.90;;;;;;5072202;28;20377;-82
2021/09/18 02:34:27;;;;;;;2.20;2.00;;;13.70;99.90;;;;;;5089272;28;20368;-84
2021/09/18 02:36:53;;;;;;;3.80;1.73;;;13.70;99.90;;;;;;5089109;28;20404;-83
2021/09/18 02:39:18;;;;;;;2.10;1.70;;;13.80;99.90;;;;;;5090185;28;20441;-87
2021/09/18 02:41:44;;;;;;;3.47;1.90;;;13.80;99.90;;;;;;5089995;28;20395;-82
2021/09/18 02:44:10;;;;;;;2.78;1.77;;;13.80;99.90;;;;;;5089564;28;20387;-86
2021/09/18 02:46:35;;;;;;;2.20;1.80;;;13.80;99.90;;;;;;5089991;28;20376;-83
2021/09/18 02:49:01;;;;;;;2.35;2.00;;;13.80;99.90;;;;;;5089527;28;20936;-83
2021/09/18 02:51:26;;;;;;;3.40;1.90;;;13.80;99.90;;;;;;5071800;28;20380;-85
2021/09/18 02:53:52;;;;;;;4.35;2.00;;;13.80;99.90;;;;;;5072062;28;20459;-84
2021/09/18 02:56:18;;;;;;;2.88;1.90;;;13.80;99.90;;;;;;5090218;28;20405;-83
2021/09/18 02:58:43;;;;;;;2.20;1.97;;;13.80;99.90;;;;;;5072887;28;20381;-84
2021/09/18 03:01:09;;;;;;;3.75;2.20;;;13.80;99.90;;;;;;5071681;28;20385;-86
2021/09/18 03:03:35;;;;;;;2.07;1.87;;;13.70;99.90;;;;;;5089919;28;20380;-87
2021/09/18 03:06:00;;;;;;;3.40;2.00;;;13.80;99.90;;;;;;5089563;28;20377;-88
2021/09/18 03:08:26;;;;;;;3.60;1.92;;;13.80;99.90;;;;;;5089479;28;20395;-85
2021/09/18 03:10:52;;;;;;;3.80;2.13;;;13.80;99.90;;;;;;5091067;28;20376;-83
2021/09/18 03:13:17;;;;;;;3.92;2.10;;;13.90;99.90;;;;;;5075581;28;20381;-84
2021/09/18 03:15:43;;;;;;;7.75;2.50;;;13.70;99.90;;;;;;5094042;28;20900;-84
2021/09/18 03:18:09;;;;;;;3.30;2.65;;;13.70;99.90;;;;;;5093720;28;20742;-87
2021/09/18 03:20:35;;;;;;;3.83;3.30;;;13.60;99.90;;;;;;5075418;28;20380;-86
2021/09/18 03:23:00;;;;;;;6.10;3.60;;;13.70;99.90;;;;;;5093630;28;20373;-85
2021/09/18 03:25:26;;;;;;;6.25;3.80;;;13.60;99.90;;;;;;5093624;28;20381;-84
2021/09/18 03:27:51;;;;;;;4.03;3.63;;;13.50;99.90;;;;;;5093408;28;20381;-86
2021/09/18 03:30:17;;;;;;;7.18;3.90;;;13.50;99.90;;;;;;5093286;28;20874;-86
2021/09/18 03:32:43;;;;;;;5.40;4.07;;;13.40;99.90;;;;;;5092302;28;20467;-86
2021/09/18 03:35:08;;;;;;;5.10;4.20;;;13.40;99.90;;;;;;5093101;28;20518;-86
2021/09/18 03:37:34;;;;;;;5.68;4.07;;;13.40;99.90;;;;;;5075858;28;20381;-82
2021/09/18 03:40:05;;;;;;;5.22;4.72;;;13.40;99.90;;;;;;5076115;28;20377;-81
2021/09/18 03:42:31;;;;;;;5.30;4.80;;;13.30;99.90;;;;;;5093474;28;20380;-83
2021/09/18 03:44:57;;;;;;;5.03;4.30;;;13.30;99.90;;;;;;5075219;28;20403;-82
2021/09/18 03:47:22;;;;;;;6.53;4.80;;;13.40;99.90;;;;;;5092701;28;20749;-83
2021/09/18 03:49:48;;;;;;;4.80;4.30;;;13.40;99.90;;;;;;5074226;28;20372;-82
2021/09/18 03:52:14;;;;;;;4.77;4.37;;;13.50;99.90;;;;;;5074821;28;20388;-82
2021/09/18 03:54:39;;;;;;;6.40;5.05;;;13.50;99.90;;;;;;5092483;28;20447;-86
2021/09/18 03:57:05;;;;;;;7.00;5.10;;;13.50;99.90;;;;;;5092116;28;20484;-83
2021/09/18 03:59:30;;;;;;;6.87;5.10;;;13.50;99.90;;;;;;5074237;28;20381;-84
2021/09/18 04:01:56;;;;;;;5.93;5.38;;;13.50;99.90;;;;;;5093745;28;20412;-85
2021/09/18 04:04:21;;;;;;;7.90;6.07;;;13.50;99.90;;;;;;5094016;28;20379;-83
2021/09/18 04:06:48;;;;;;;10.07;6.60;;;13.50;99.90;;;;;;5093496;28;20379;-83
2021/09/18 04:09:14;;;;;;;7.95;6.05;;;13.50;99.90;;;;;;5075231;28;20758;-85
2021/09/18 04:11:40;;;;;;;7.47;6.43;;;13.40;99.90;;;;;;5093007;28;20372;-84
2021/09/18 04:14:06;;;;;;;8.35;6.35;;;13.40;99.90;;;;;;5075213;28;20448;-84
2021/09/18 04:16:32;;;;;;;9.55;7.50;;;13.50;99.90;;;;;;5074316;28;20579;-85
2021/09/18 04:18:58;;;;;;;9.90;7.10;;;13.50;99.90;;;;;;5093380;28;20463;-83
2021/09/18 04:21:24;;;;;;;9.70;8.00;;;13.50;99.90;;;;;;5074941;28;20412;-84
2021/09/18 04:23:50;;;;;;;10.27;7.80;;;13.40;99.90;;;;;;5092909;28;20379;-86
2021/09/18 04:26:15;;;;;;;10.23;8.02;;;13.50;99.90;;;;;;5093589;28;20870;-83
2021/09/18 04:28:41;;;;;;;11.73;8.88;;;13.50;99.90;;;;;;5093584;28;20502;-84
2021/09/18 04:31:07;;;;;;;12.25;9.80;;;13.50;99.90;;;;;;5074256;28;20731;-82
2021/09/18 04:33:33;;;;;;;11.63;9.33;;;13.50;99.90;;;;;;5092697;28;20511;-83
2021/09/18 04:35:59;;;;;;;14.37;10.63;;;13.40;99.90;;;;;;5091719;28;20909;-83
2021/09/18 04:38:24;;;;;;;11.85;10.05;;;13.30;99.90;;;;;;5092920;28;20375;-85
2021/09/18 04:40:50;;;;;;;14.67;10.87;;;13.40;99.90;;;;;;5093914;28;20463;-83
2021/09/18 04:43:15;;;;;;;15.50;11.93;;;13.40;99.90;;;;;;5093609;28;20472;-85
2021/09/18 04:45:41;;;;;;;14.73;11.45;;;13.30;99.90;;;;;;5094916;28;20372;-85
2021/09/18 04:48:07;;;;;;;16.03;11.63;;;13.40;99.90;;;;;;5091770;28;20415;-83
2021/09/18 04:50:32;;;;;;;14.07;11.90;;;13.30;99.90;;;;;;5091664;28;20376;-84
2021/09/18 04:52:58;;;;;;;13.77;11.27;;;13.40;99.90;;;;;;5072727;28;20461;-82
2021/09/18 04:55:24;;;;;;;14.47;11.30;;;13.40;99.90;;;;;;5072664;28;20396;-84
2021/09/18 04:57:49;;;;;;;12.68;11.00;;;13.40;99.90;;;;;;5072812;28;20411;-83
2021/09/18 05:00:15;;;;;;;15.53;12.50;;;13.50;99.90;;;;;;5090246;28;20368;-84
2021/09/18 05:02:41;;;;;;;14.33;11.60;;;13.40;99.90;;;;;;5090601;28;20369;-82
2021/09/18 05:05:07;;;;;;;15.45;12.48;;;13.40;99.90;;;;;;5071906;28;20435;-86
2021/09/18 05:07:33;;;;;;;14.93;12.23;;;13.40;99.90;;;;;;5072533;28;20411;-86
2021/09/18 05:09:58;;;;;;;16.63;12.40;;;13.40;99.90;;;;;;5090770;28;20384;-84
2021/09/18 05:12:24;;;;;;;13.27;11.23;;;13.40;99.90;;;;;;5090246;28;20375;-84
2021/09/18 05:14:49;;;;;;;14.27;12.30;;;13.50;99.90;;;;;;5090241;28;20368;-83
2021/09/18 05:17:16;;;;;;;15.45;12.27;;;13.50;99.90;;;;;;5089600;28;20396;-83
2021/09/18 05:19:42;;;;;;;15.40;11.67;;;13.50;99.90;;;;;;5089508;28;20387;-86
2021/09/18 05:22:07;;;;;;;13.17;11.50;;;13.60;99.90;;;;;;5090059;28;20463;-84
2021/09/18 05:24:33;;;;;;;12.55;10.73;;;13.60;99.90;;;;;;5090866;28;20467;-84
2021/09/18 05:26:59;;;;;;;12.10;10.80;;;13.60;99.90;;;;;;5091340;28;20372;-84
2021/09/18 05:29:24;;;;;;;11.40;10.13;;;13.70;99.90;;;;;;5091353;28;20911;-87
2021/09/18 05:31:50;;;;;;;12.43;10.83;;;13.70;99.90;;;;;;5091203;28;20368;-84
2021/09/18 05:34:16;;;;;;;11.70;10.27;;;13.60;99.90;;;;;;5073690;28;20379;-86
2021/09/18 05:36:41;;;;;;;11.20;10.00;;;13.60;99.90;;;;;;5091348;28;20905;-85
2021/09/18 05:39:07;;;;;;;11.13;9.73;;;13.60;99.90;;;;;;5091234;28;20404;-85
2021/09/18 05:41:32;;;;;;;10.83;9.50;;;13.60;99.90;;;;;;5091596;28;20365;-86
2021/09/18 05:43:58;;;;;;;11.25;10.15;;;13.70;99.90;;;;;;5072525;28;20920;-83
2021/09/18 05:46:24;;;;;;;10.60;9.50;;;13.70;99.90;;;;;;5090504;28;20372;-85
2021/09/18 05:48:49;;;;;;;10.23;9.13;;;13.80;99.90;;;;;;5072544;28;20797;-84
2021/09/18 05:51:15;;;;;;;10.95;9.00;;;13.80;99.90;;;;;;5091159;28;20404;-83
2021/09/18 05:53:40;;;;;;;11.53;9.17;;;13.80;99.90;;;;;;5073661;28;20372;-85
2021/09/18 05:56:06;;;;;;;10.93;9.50;;;13.80;99.90;;;;;;5075251;28;20400;-86
2021/09/18 05:58:32;;;;;;;9.63;8.23;;;13.90;99.90;;;;;;5090675;28;20400;-84
2021/09/18 06:00:57;;;;;;;9.50;8.50;;;14.00;99.90;;;;;;5091345;28;20364;-83
2021/09/18 06:03:23;;;;;;;9.50;8.53;;;14.00;99.90;;;;;;5071575;28;20825;-84
2021/09/18 06:05:48;;;;;;;9.40;8.40;;;14.10;99.90;;;;;;5072195;28;20704;-85
2021/09/18 06:08:14;;;;;;;8.98;8.05;;;14.10;99.90;;;;;;5072823;28;20975;-84
2021/09/18 06:10:40;;;;;;;8.97;8.10;;;14.20;99.90;;;;;;5091133;28;20371;-83
2021/09/18 06:13:05;;;;;;;9.52;8.00;;;14.20;99.90;;;;;;5072334;28;20411;-84
2021/09/18 06:15:31;;;;;;;9.67;8.67;;;14.30;99.90;;;;;;5090316;28;20450;-85
2021/09/18 06:17:56;;;;;;;10.05;9.07;;;14.30;99.90;;;;;;5072018;28;20391;-82
2021/09/18 06:20:24;;;;;;;9.75;8.68;;;14.20;99.90;;;;;;5072275;28;20372;-84
2021/09/18 06:22:49;;;;;;;9.38;8.38;;;14.30;99.90;;;;;;5072162;28;20834;-83
2021/09/18 06:25:15;;;;;;;9.80;8.47;;;14.40;99.90;;;;;;5072592;28;20486;-87
2021/09/18 06:27:41;;;;;;;10.60;9.60;;;14.50;99.90;;;;;;5072072;28;21014;-84
2021/09/18 06:30:09;;;;;;;10.80;9.70;;;14.50;99.90;;;;;;5090152;28;20464;-85
2021/09/18 06:32:35;;;;;;;11.30;9.90;;;14.50;99.90;;;;;;5071901;28;20412;-84
2021/09/18 06:35:00;;;;;;;10.43;9.32;;;14.50;99.90;;;;;;5089593;28;20807;-83
2021/09/18 06:37:26;;;;;;;11.00;9.90;;;14.60;99.90;;;;;;5072123;28;20381;-82
2021/09/18 06:39:52;;;;;;;11.37;9.87;;;14.70;99.90;;;;;;5089820;28;20792;-86
2021/09/18 06:42:17;;;;;;;11.43;9.43;;;14.70;99.90;;;;;;5089232;28;20420;-84
2021/09/18 06:44:45;;;;;;;11.50;9.73;;;14.70;99.90;;;;;;5090228;28;20412;-84
2021/09/18 06:47:13;;;;;;;9.43;8.40;;;14.70;99.90;;;;;;5075703;28;20405;-86
2021/09/18 06:49:39;;;;;;;9.77;8.88;;;14.90;99.90;;;;;;5093026;28;20378;-83
2021/09/18 06:52:05;;;;;;;8.73;7.82;;;15.00;99.90;;;;;;5093282;28;20380;-85
2021/09/18 06:54:31;;;;;;;8.80;7.90;;;15.20;99.90;;;;;;5074445;28;20399;-82
2021/09/18 06:56:57;;;;;;;8.98;8.07;;;15.40;99.90;;;;;;5093872;28;20489;-84
2021/09/18 06:59:22;;;;;;;9.77;8.77;;;15.40;99.90;;;;;;5093276;28;20373;-84
2021/09/18 07:01:48;;;;;;;10.35;8.60;;;15.30;99.90;;;;;;5093009;28;20370;-83
2021/09/18 07:04:13;;;;;;;10.23;9.20;;;15.30;99.90;;;;;;5093432;28;20927;-84
2021/09/18 07:06:39;;;;;;;10.02;8.55;;;15.30;99.90;;;;;;5071320;28;20377;-82
2021/09/18 07:09:05;;;;;;;12.95;9.45;;;15.40;99.90;;;;;;5075771;28;20408;-83
2021/09/18 07:11:31;;;;;;;9.63;8.70;;;15.30;99.90;;;;;;5094110;28;20369;-80
2021/09/18 07:13:56;;;;;;;9.88;8.68;;;15.40;99.90;;;;;;5094899;28;20511;-82
2021/09/18 07:16:22;;;;;;;8.40;7.57;;;15.60;99.90;;;;;;5093226;28;20410;-84
2021/09/18 07:18:48;;;;;;;9.18;7.60;;;15.80;99.90;;;;;;5093647;28;20467;-81
2021/09/18 07:21:14;;;;;;;10.20;7.73;;;15.90;99.90;;;;;;5074706;28;20461;-83
2021/09/18 07:23:40;;;;;;;10.20;7.55;;;16.10;99.90;;;;;;5074242;28;20754;-85
2021/09/18 07:26:06;;;;;;;8.73;7.93;;;16.10;99.90;;;;;;5091217;28;20406;-82
2021/09/18 07:28:32;;;;;;;7.90;7.18;;;16.10;99.90;;;;;;5091756;28;20437;-82
2021/09/18 07:30:58;;;;;;;8.88;7.97;;;16.10;99.90;;;;;;5072766;28;20380;-80
2021/09/18 07:33:24;;;;;;;8.85;7.88;;;16.10;99.90;;;;;;5092203;28;20385;-83
2021/09/18 07:35:49;;;;;;;8.40;6.97;;;16.20;99.90;;;;;;5092039;28;20404;-83
2021/09/18 07:38:15;;;;;;;7.90;7.10;;;16.30;99.90;;;;;;5077563;28;20878;-80
2021/09/18 07:40:42;;;;;;;7.55;6.78;;;16.30;99.90;;;;;;5095751;28;20632;-80
2021/09/18 07:43:07;;;;;;;7.63;6.93;;;16.30;99.90;;;;;;5093591;28;20380;-83
2021/09/18 07:45:33;;;;;;;6.70;6.10;;;16.20;99.90;;;;;;5074354;28;20828;-80
2021/09/18 07:47:58;;;;;;;7.80;5.80;;;16.40;99.90;;;;;;5093284;28;20455;-81
2021/09/18 07:50:24;;;;;;;6.35;5.75;;;16.40;99.90;;;;;;5074356;28;20968;-84
2021/09/18 07:52:50;;;;;;;6.75;6.05;;;16.50;99.90;;;;;;5076112;28;20380;-84
2021/09/18 07:55:16;;;;;;;6.70;5.07;;;16.60;99.90;;;;;;5092200;28;20730;-80
2021/09/18 07:57:41;;;;;;;5.57;4.85;;;16.70;99.90;;;;;;5073077;28;20376;-82
2021/09/18 08:00:08;;;;;;;5.85;4.35;;;16.70;99.90;;;;;;5093671;28;20463;-84
2021/09/18 08:02:34;;;;;;;5.30;4.07;;;16.80;99.90;;;;;;5092588;28;20378;-83
2021/09/18 08:05:02;;;;;;;4.40;3.30;;;17.00;99.90;;;;;;5092325;28;20873;-84
2021/09/18 08:07:28;;;;;;;4.13;3.13;;;17.10;99.90;;;;;;5073270;28;20396;-81
2021/09/18 08:09:55;;;;;;;3.42;2.80;;;17.20;99.90;;;;;;5091832;28;20373;-81
2021/09/18 08:12:22;;;;;;;3.28;2.80;;;17.40;99.90;;;;;;5073459;28;20387;-84
2021/09/18 08:14:48;;;;;;;2.38;1.48;;;17.50;99.90;;;;;;5092014;28;20377;-83
2021/09/18 08:17:14;;;;;;;2.83;1.60;;;17.30;99.90;;;;;;5091118;28;20399;-83
2021/09/18 08:19:40;;;;;;;2.70;1.20;;;17.00;99.90;;;;;;5091629;28;20398;-83
2021/09/18 08:22:05;;;;;;;1.42;1.10;;;16.70;99.90;;;;;;5091680;28;20368;-80
2021/09/18 08:24:31;;;;;;;2.05;1.00;;;16.60;99.90;;;;;;5091118;28;20376;-81
2021/09/18 08:26:57;;;;;;;1.47;0.90;;;16.50;99.90;;;;;;5092200;28;20419;-84
2021/09/18 08:29:22;;;;;;;1.77;0.80;;;16.50;99.90;;;;;;5076633;28;20385;-83
2021/09/18 08:31:48;;;;;;;1.83;0.98;;;16.50;99.90;;;;;;5087494;28;20403;-83
2021/09/18 08:34:13;;;;;;;1.70;0.90;;;16.60;99.90;;;;;;5091563;28;20491;-82
2021/09/18 08:36:39;;;;;;;3.10;1.00;;;16.70;99.90;;;;;;5101906;28;20541;-86
2021/09/18 08:39:05;;;;;;;1.50;0.80;;;16.80;99.90;;;;;;5079027;28;20388;-84
2021/09/18 08:41:31;;;;;;;1.48;1.05;;;17.00;99.90;;;;;;5073399;28;20894;-81
2021/09/18 08:43:57;;;;;;;1.33;0.90;;;17.00;99.90;;;;;;5072139;28;20391;-85
2021/09/18 08:46:25;;;;;;;1.90;1.10;;;17.10;99.90;;;;;;5072361;28;20398;-82
2021/09/18 08:48:52;;;;;;;1.00;0.90;;;17.50;99.90;;;;;;5076557;28;20743;-85
2021/09/18 08:51:18;;;;;;;1.70;0.90;;;17.80;99.90;;;;;;5089909;28;20399;-84
2021/09/18 08:53:44;;;;;;;2.03;0.97;;;18.20;99.90;;;;;;5068780;28;20388;-85
2021/09/18 08:56:10;;;;;;;1.80;1.05;;;18.40;99.90;;;;;;5087299;28;20399;-81
2021/09/18 08:58:36;;;;;;;1.37;1.03;;;18.40;99.90;;;;;;5098702;28;20474;-83
2021/09/18 09:01:03;;;;;;;2.15;1.02;;;18.30;99.90;;;;;;5080112;28;20469;-84
2021/09/18 09:03:35;;;;;;;1.40;0.80;;;18.30;99.90;;;;;;5093117;28;20372;-84
2021/09/18 09:06:13;;;;;;;1.85;0.80;;;18.10;99.90;;;;;;5069277;28;20970;-84
2021/09/18 09:08:42;;;;;;;1.50;0.70;;;18.30;99.90;;;;;;5096517;28;20416;-82
2021/09/18 09:11:23;;;;;;;1.90;0.63;;;18.40;99.90;;;;;;5090063;28;20800;-83
2021/09/18 09:14:10;;;;;;;2.42;0.60;;;18.50;99.90;;;;;;5076557;28;20403;-84
2021/09/18 09:16:37;;;;;;;1.10;0.70;;;18.30;99.90;;;;;;5091065;28;20398;-84
2021/09/18 09:19:14;;;;;;;3.70;0.80;;;18.20;99.90;;;;;;5089606;28;20410;-79
2021/09/18 09:21:47;;;;;;;2.03;0.60;;;18.00;99.90;;;;;;5099731;28;20367;-84
2021/09/18 09:24:15;;;;;;;1.15;0.60;;;17.60;99.90;;;;;;5078578;28;20400;-83
2021/09/18 09:27:05;;;;;;;0.90;0.70;;;17.30;99.90;;;;;;5094982;28;20369;-81
2021/09/18 09:29:54;;;;;;;1.00;0.80;;;17.10;99.90;;;;;;5062159;28;20408;-82
2021/09/18 09:32:33;;;;;;;1.00;0.70;;;16.90;99.90;;;;;;5092652;28;20384;-85
2021/09/18 09:35:01;;;;;;;1.75;0.60;;;16.90;99.90;;;;;;5094412;28;20376;-86
2021/09/18 09:37:27;;;;;;;1.50;0.60;;;16.90;99.90;;;;;;5095502;28;20398;-82
2021/09/18 09:39:55;;;;;;;1.42;0.55;;;17.10;99.90;;;;;;5092601;28;20379;-82
2021/09/18 09:42:31;;;;;;;0.85;0.50;;;17.00;99.90;;;;;;5074902;28;20410;-83
2021/09/18 09:45:29;;;;;;;1.85;0.50;;;17.20;99.90;;;;;;5070942;28;20404;-86
2021/09/18 09:48:29;;;;;;;1.10;0.40;;;17.50;99.90;;;;;;5039577;28;20379;-85
2021/09/18 09:51:01;;;;;;;1.40;0.60;;;17.70;99.90;;;;;;5092707;28;20491;-85
2021/09/18 09:53:29;;;;;;;1.73;0.50;;;18.00;99.90;;;;;;5080746;28;20614;-79
2021/09/18 09:55:55;;;;;;;0.73;0.50;;;18.10;99.90;;;;;;5100579;28;20482;-79
2021/09/18 09:58:21;;;;;;;0.80;0.40;;;18.20;99.90;;;;;;5097576;28;20463;-84
2021/09/18 10:00:52;;;;;;;1.05;0.50;;;18.40;99.90;;;;;;5099007;28;20910;-84
2021/09/18 10:03:26;;;;;;;1.30;0.60;;;18.20;99.90;;;;;;5100215;28;20393;-84
2021/09/18 10:05:53;;;;;;;1.00;0.65;;;18.20;99.90;;;;;;5080881;28;20949;-83
2021/09/18 10:08:25;;;;;;;0.98;0.60;;;18.50;99.90;;;;;;5092969;28;20388;-80
2021/09/18 10:10:52;;;;;;;0.57;0.55;;;18.80;99.90;;;;;;5097103;28;20379;-80
2021/09/18 10:13:25;;;;;;;1.77;0.60;;;18.90;99.90;;;;;;5099788;28;20370;-84
2021/09/18 10:15:52;;;;;;;0.50;0.30;;;19.10;99.90;;;;;;5098650;28;20400;-82
2021/09/18 10:18:19;;;;;;;0.77;0.63;;;18.80;99.90;;;;;;5098053;28;20372;-85
2021/09/18 10:23:23;;;;;;;0.63;0.60;;;18.90;99.90;;;;;;5097644;28;20436;-81
2021/09/18 10:25:51;;;;;;;1.58;0.60;;;19.10;99.90;;;;;;5101417;28;20388;-81
2021/09/18 10:28:24;;;;;;;1.52;0.60;;;19.30;99.90;;;;;;5069920;28;20388;-82
2021/09/18 10:31:10;;;;;;;0.63;0.40;;;19.20;99.90;;;;;;5094947;28;20399;-84
2021/09/18 10:33:46;;;;;;;0.50;0.50;;;18.90;99.90;;;;;;5094119;28;20434;-85
2021/09/18 10:36:32;;;;;;;1.27;0.50;;;18.70;99.90;;;;;;5093782;28;20402;-82
2021/09/18 10:39:18;;;;;;;1.55;0.47;;;18.60;99.90;;;;;;5078651;28;20412;-81
2021/09/18 10:41:49;;;;;;;1.10;0.68;;;18.60;99.90;;;;;;5068428;28;20396;-85
2021/09/18 10:44:17;;;;;;;0.90;0.35;;;18.70;99.90;;;;;;5092836;28;20424;-82
2021/09/18 10:46:54;;;;;;;1.20;0.38;;;18.80;99.90;;;;;;5099924;28;20383;-84
2021/09/18 10:49:32;;;;;;;1.13;0.40;;;19.10;99.90;;;;;;5095553;28;20373;-82
2021/09/18 10:52:16;;;;;;;0.45;0.40;;;18.90;99.90;;;;;;5091630;28;20515;-82
2021/09/18 10:55:00;;;;;;;0.80;0.57;;;18.50;99.90;;;;;;5098848;28;20449;-83
2021/09/18 10:57:27;;;;;;;0.83;0.40;;;18.00;99.90;;;;;;5099240;28;21120;-85
2021/09/18 10:59:52;;;;;;;1.83;0.68;;;17.60;99.90;;;;;;5081193;28;20397;-83
2021/09/18 11:02:30;;;;;;;1.50;0.60;;;17.50;99.90;;;;;;5099495;28;20372;-80
2021/09/18 11:05:00;;;;;;;0.98;0.47;;;17.50;99.90;;;;;;5078801;28;20391;-80
2021/09/18 11:07:49;;;;;;;1.95;0.75;;;17.50;99.90;;;;;;5088218;28;20390;-80
2021/09/18 11:10:35;;;;;;;1.08;0.60;;;17.40;99.90;;;;;;5075617;28;20379;-83
2021/09/18 11:13:07;;;;;;;1.02;0.70;;;17.30;99.90;;;;;;5093629;28;20399;-84
2021/09/18 11:15:46;;;;;;;1.88;0.80;;;17.10;99.90;;;;;;5067470;28;20405;-86
2021/09/18 11:18:26;;;;;;;1.30;0.77;;;17.20;99.90;;;;;;5074352;28;20392;-82
2021/09/18 11:20:58;;;;;;;0.50;0.50;;;17.30;99.90;;;;;;5065230;28;20384;-84
2021/09/18 11:23:38;;;;;;;3.33;0.90;;;17.50;99.90;;;;;;5088843;28;20425;-81
2021/09/18 11:26:38;;;;;;;1.75;0.70;;;17.80;99.90;;;;;;5091096;28;20380;-85
2021/09/18 11:29:27;;;;;;;1.40;0.90;;;18.00;99.90;;;;;;5067655;28;20392;-80
2021/09/18 11:32:15;;;;;;;0.70;0.70;;;18.10;99.90;;;;;;5090614;28;20385;-84
2021/09/18 11:34:52;;;;;;;2.13;0.65;;;18.10;99.90;;;;;;5090964;28;21111;-84
2021/09/18 11:37:22;;;;;;;0.90;0.60;;;18.00;99.90;;;;;;5091718;28;20487;-83
2021/09/18 11:40:04;;;;;;;1.65;0.80;;;17.90;99.90;;;;;;5090554;28;20378;-84
2021/09/18 11:42:42;;;;;;;1.55;0.80;;;17.80;99.90;;;;;;5089278;28;20459;-83
2021/09/18 11:45:08;;;;;;;1.65;0.90;;;17.30;99.90;;;;;;5092654;28;20483;-83
2021/09/18 11:47:38;;;;;;;1.77;0.82;;;17.20;99.90;;;;;;5087328;28;20399;-84
2021/09/18 11:50:24;;;;;;;1.38;0.70;;;17.10;99.90;;;;;;5089176;28;20368;-81
2021/09/18 11:52:51;;;;;;;1.75;1.13;;;17.00;99.90;;;;;;5074690;28;20375;-81
2021/09/18 11:55:36;;;;;;;2.00;0.80;;;16.80;99.90;;;;;;5091305;28;20388;-81
2021/09/18 11:58:33;;;;;;;1.88;0.90;;;16.90;99.90;;;;;;5091788;28;20384;-81
2021/09/18 12:01:01;;;;;;;1.75;0.90;;;16.90;99.90;;;;;;5086772;28;20443;-82
2021/09/18 12:03:34;;;;;;;1.63;0.90;;;17.00;99.90;;;;;;5066400;28;20392;-82
2021/09/18 12:06:05;;;;;;;5.80;1.23;;;17.10;99.90;;;;;;5093649;28;20730;-79
2021/09/18 12:08:32;;;;;;;2.55;1.20;;;17.30;99.90;;;;;;5096086;28;20934;-82
2021/09/18 12:11:07;;;;;;;2.03;1.00;;;17.30;99.90;;;;;;5095862;28;20412;-80
2021/09/18 12:13:53;;;;;;;3.50;1.30;;;17.50;99.90;;;;;;5097286;28;20407;-80
2021/09/18 12:16:21;;;;;;;3.38;1.30;;;17.50;99.90;;;;;;5076156;28;20922;-81
2021/09/18 12:18:49;;;;;;;1.35;1.20;;;17.40;99.90;;;;;;5079106;28;20790;-82
2021/09/18 12:21:30;;;;;;;3.05;1.45;;;17.30;99.90;;;;;;5100710;28;20380;-80
2021/09/18 12:23:58;;;;;;;2.30;1.30;;;17.30;99.90;;;;;;5079357;28;20744;-82
2021/09/18 12:26:27;;;;;;;2.67;1.30;;;17.50;99.90;;;;;;5074220;28;20723;-83
2021/09/18 12:29:08;;;;;;;1.88;1.15;;;17.50;99.90;;;;;;5102234;28;20907;-81
2021/09/18 12:31:34;;;;;;;1.90;1.30;;;17.40;99.90;;;;;;5100521;28;20401;-82
2021/09/18 12:34:20;;;;;;;2.13;1.30;;;17.40;99.90;;;;;;5098812;28;20396;-84
2021/09/18 12:36:47;;;;;;;2.75;1.40;;;17.30;99.90;;;;;;5077024;28;20407;-83
2021/09/18 12:39:13;;;;;;;2.60;1.40;;;17.20;99.90;;;;;;5069319;28;20468;-84
2021/09/18 12:41:41;;;;;;;2.70;1.40;;;17.20;99.90;;;;;;5097570;28;20394;-83
2021/09/18 12:44:12;;;;;;;2.67;1.67;;;17.20;99.90;;;;;;5073418;28;20402;-82
2021/09/18 12:46:44;;;;;;;3.50;1.57;;;17.30;99.90;;;;;;5068481;28;20377;-85
2021/09/18 12:49:10;;;;;;;3.42;1.63;;;17.30;99.90;;;;;;5090198;28;20383;-83
2021/09/18 12:51:38;;;;;;;4.33;1.93;;;17.30;99.90;;;;;;5091140;28;20382;-84
2021/09/18 12:54:06;;;;;;;3.95;1.80;;;17.30;99.90;;;;;;5089895;28;20479;-83